Tie Siding, WY (82084)

7:18 PM MDT on September 30, 2014 (GMT -0600)
WYDOT | Change Station
CLOSE
Current Station
Personal Weather Station
Location: Tie Siding, WY
Elevation: 8097 ft
Nearby Weather Stations

Elev 8097 ft 41.05 °N, 105.47 °W | Updated 2 days ago

Rain
Rain
47 °F
Feels Like 47 °F
N
17
Wind Variable Wind from West
Gusts 28 mph

Today
High -- | Low -- °F
--% Chance of Precip.
Yesterday
High -- | Low -- °F
Precip. -- in
6:57 AM 6:45 PM
Waxing Crescent, 42% visible
Pressure 29.74 in
Visibility 10.0 miles
Clouds Scattered Clouds 5000 ft
Mostly Cloudy 8000 ft
Overcast 9000 ft
Dew Point 34 °F
Humidity 63%
Rainfall -999.00 in
Snow Depth 0 in , 1 in , 0 in
UV 0 out of 12
Pollen 3.20 out of 12
Air Quality Not available.
Flu Activity Not available.
METAR KLAR 010053Z AUTO 21010KT 10SM SCT050 BKN080 OVC090 08/02 A2990 RMK AO2 SLP069 T00780022

More Conditions Fewer Conditions

Pressure 29.74 in
Visibility 10.0 miles
Clouds Scattered Clouds 5000 ft
Mostly Cloudy 8000 ft
Overcast 9000 ft
Dew Point 34 °F
Humidity 63%
Rainfall -999.00 in
Snow Depth 0 in , 1 in , 0 in
UV 0 out of 12
Pollen 3.20 out of 12
Air Quality Not available.
Flu Activity Not available.
METAR KLAR 010053Z AUTO 21010KT 10SM SCT050 BKN080 OVC090 08/02 A2990 RMK AO2 SLP069 T00780022

More Conditions Fewer Conditions

Nowcast | as of 7:04 PM MDT on September 30, 2014

Through 9 PM...widely scattered showers and a few thunderstorms will move east...mainly across areas west of the Laramie range. Rainfall amounts will average less than a tenth of an inch.

×

10-Day Weather Forecast

Almanac

Astronomy

Sep. 30, 2014 Rise Set
Actual Time 6:57 AM MDT 6:45 PM MDT
Civil Twilight 6:29 AM MDT 7:12 PM MDT
Nautical Twilight 5:58 AM MDT 7:44 PM MDT
Astronomical Twilight 5:25 AM MDT 8:16 PM MDT
Moon 1:10 PM MDT (9/30) 11:15 PM MDT (9/30)
Length of Visible Light 12h 42m
Length of Day
11h 47m
Tomorrow will be 2m 43s shorter.
Waxing Crescent, 42% of the Moon is Illuminated
Today
Waxing Crescent
Oct 1
First Quarter
Oct 8
Full
Oct 15
Last Quarter
Oct 23
New

Today's Extremes

State Highs State Lows

Community

WunderPhotos

Upload Photos

1,757,815 photos uploaded!

Nearby

Snow Depth

Station Depth Elevation
Sucker Creek 0 in 8880 ft
Willow Creek 1 in 8450 ft
Base Camp 0 in 7030 ft
Blackwater 0 in 9780 ft
Lewis Lake Divide 1 in 7850 ft

Earthquake Activity

City Distance Mag. Time & Date
No recent earthquake activity has been reported nearby.
Minimum magnitude displayed is 2.5.

Coastal Water Temperatures

Place Temperature
No Stations Reporting

Nearby Weather Stations